Latest Weather Observations for Geelong Racecourse

IDV60901

Issued at 6:41 pm EST Monday 4 May 2026 (issued every 10 minutes, with the page automatically refreshed every 10 minutes)

About weather observations | Map of Melbourne area stations | Latest observations for Melbourne area | Other Formats
Station Details ID: 087184 Name: GEELONG RACECOURSE Lat: -38.17 Lon: 144.38 Height: 12.9 m
Data from the previous 72 hours. | See also: Recent months at Geelong Racecourse
Date/Time
EST
Temp
°C
App
Temp
°C
Dew
Point
°C
Rel
Hum
%
Delta-T
°C
Wind Press
QNH
hPa
Press
MSL
hPa
Rain since
9am
mm
Dir  Spd
km/h
Gust
km/h
Spd
kts
Gust
kts
04/06:30pm 16.3 12.7 10.4 68 3.1 NW 20 32 11 17 1009.4 1009.4 0.0
04/06:00pm 16.6 13.0 10.5 67 3.2 NW 20 30 11 16 1008.9 1008.9 0.0
04/05:30pm 16.9 11.9 9.6 62 3.8 NW 26 39 14 21 1008.3 1008.3 0.0
04/05:00pm 17.9 12.9 9.5 58 4.4 NNW 26 43 14 23 1008.1 1008.1 0.0
04/04:38pm 18.6 13.2 9.4 55 4.8 NNW 28 48 15 26 1007.7 1007.7 0.0
04/04:30pm 18.2 13.6 9.8 58 4.4 NNW 24 37 13 20 1007.8 1007.8 0.0
04/04:04pm 18.6 12.8 9.4 55 4.8 NNW 30 52 16 28 1007.5 1007.5 0.0
04/04:00pm 18.9 13.2 9.7 55 4.9 NNW 30 43 16 23 1007.6 1007.6 0.0
04/03:35pm 18.4 13.0 9.5 56 4.7 NNW 28 50 15 27 1007.6 1007.6 0.0
04/03:30pm 18.6 13.6 9.4 55 4.8 NNW 26 43 14 23 1007.7 1007.7 0.0
04/03:04pm 18.9 13.2 9.7 55 4.9 NNW 30 50 16 27 1007.7 1007.7 0.0
04/03:00pm 18.6 12.8 9.4 55 4.9 NNW 30 44 16 24 1007.6 1007.6 0.0
04/02:39pm 18.7 13.2 9.2 54 5.0 NNW 28 46 15 25 1007.6 1007.6 0.0
04/02:30pm 18.6 12.8 9.4 55 4.8 NNW 30 46 16 25 1007.5 1007.5 0.0
04/02:00pm 19.0 12.6 9.2 53 5.2 NNW 33 57 18 31 1007.5 1007.5 0.0
04/01:30pm 19.1 13.3 9.3 53 5.2 NNW 30 48 16 26 1007.7 1007.7 0.0
04/01:00pm 19.1 12.7 9.3 53 5.2 NNW 33 57 18 31 1008.2 1008.2 0.0
04/12:45pm 18.4 12.4 8.7 53 5.0 NNW 30 50 16 27 1008.3 1008.3 0.0
04/12:30pm 17.8 11.9 9.2 57 4.5 NNW 30 44 16 24 1008.7 1008.7 0.0
04/12:01pm 17.1 11.5 8.8 58 4.3 NNW 28 46 15 25 1009.1 1009.1 0.0
04/12:00pm 17.1 11.4 8.5 57 4.4 NNW 28 44 15 24 1009.0 1009.0 0.0
04/11:30am 17.9 11.9 8.7 55 4.8 NNW 30 50 16 27 1009.3 1009.3 0.0
04/11:20am 17.1 11.0 8.3 56 4.5 NNW 30 52 16 28 1009.2 1009.2 0.0
04/11:00am 17.8 12.4 7.8 52 5.1 NNW 26 43 14 23 1009.3 1009.3 0.0
04/10:46am 17.6 11.8 7.9 53 4.9 NNW 28 48 15 26 1009.2 1009.2 0.0
04/10:30am 16.9 11.1 7.8 55 4.6 NNW 28 41 15 22 1009.4 1009.4 0.0
04/10:00am 17.0 13.0 8.9 59 4.2 NNW 20 32 11 17 1009.6 1009.6 0.0
04/09:30am 15.7 11.3 8.9 64 3.5 N 22 35 12 19 1009.7 1009.7 0.0
04/09:00am 15.3 11.2 8.5 64 3.4 N 20 32 11 17 1009.8 1009.8 8.0
04/08:30am 14.1 10.6 8.9 71 2.6 N 17 24 9 13 1010.0 1010.0 8.0
04/08:00am 13.2 10.5 9.1 76 2.1 NNE 13 20 7 11 1010.0 1010.0 8.0
04/07:30am 12.6 9.8 8.7 77 1.9 NNE 13 20 7 11 1010.0 1010.0 8.0
04/07:00am 12.3 10.6 8.4 77 1.9 NNE 7 13 4 7 1010.1 1010.1 8.0
04/06:30am 12.5 10.5 8.6 77 1.9 NNE 9 15 5 8 1009.8 1009.8 8.0
04/06:00am 12.6 9.9 9.1 79 1.8 NNE 13 20 7 11 1010.0 1010.0 8.0
04/05:30am 12.5 9.9 9.3 81 1.6 NNE 13 22 7 12 1009.8 1009.8 8.0
04/05:00am 12.5 9.6 9.5 82 1.5 NNE 15 20 8 11 1010.2 1010.2 8.0
04/04:30am 12.3 10.1 9.3 82 1.5 N 11 19 6 10 1010.4 1010.4 8.0
04/04:00am 12.6 9.2 9.1 79 1.8 NNE 17 24 9 13 1010.5 1010.5 8.0
04/03:30am 12.7 9.3 9.0 78 1.9 NNE 17 24 9 13 1010.6 1010.6 8.0
04/03:00am 12.6 9.9 9.1 79 1.8 NNE 13 20 7 11 1010.9 1010.9 8.0
04/02:30am 12.7 10.1 9.2 79 1.8 NNE 13 20 7 11 1011.0 1011.0 8.0
04/02:00am 12.9 10.7 9.2 78 1.9 NNE 11 17 6 9 1011.1 1011.1 8.0
04/01:30am 13.5 11.2 9.0 74 2.3 NNE 11 15 6 8 1011.1 1011.1 8.0
04/01:00am 13.8 11.7 8.2 69 2.8 N 9 17 5 9 1011.1 1011.1 8.0
04/12:30am 13.9 11.6 8.9 72 2.5 N 11 19 6 10 1011.2 1011.2 8.0
04/12:00am 13.6 11.3 8.9 73 2.4 N 11 17 6 9 1011.4 1011.4 8.0
 
Date/Time
EST
Temp
°C
App
Temp
°C
Dew
Point
°C
Rel
Hum
%
Delta-T
°C
Wind Press
QNH
hPa
Press
MSL
hPa
Rain since
9am
mm
Dir  Spd
km/h
Gust
km/h
Spd
kts
Gust
kts
03/11:30pm 13.4 11.9 9.3 76 2.1 NNE 7 13 4 7 1011.4 1011.4 8.0
03/11:00pm 13.5 12.2 9.9 79 1.9 N 7 11 4 6 1011.6 1011.6 8.0
03/10:30pm 13.9 12.3 10.3 79 1.9 N 9 15 5 8 1011.9 1011.9 8.0
03/10:00pm 14.2 13.4 11.0 81 1.7 NNE 6 9 3 5 1011.9 1011.9 8.0
03/09:30pm 14.6 13.5 10.8 78 2.0 NNE 7 13 4 7 1012.3 1012.3 8.0
03/09:00pm 15.1 13.6 10.7 75 2.3 N 9 17 5 9 1012.2 1012.2 8.0
03/08:30pm 15.2 13.4 10.8 75 2.3 N 11 15 6 8 1012.1 1012.1 8.0
03/08:00pm 15.5 13.6 10.5 72 2.6 N 11 17 6 9 1011.8 1011.8 8.0
03/07:30pm 16.0 13.3 10.3 69 3.0 N 15 19 8 10 1011.8 1011.8 8.0
03/07:00pm 16.3 13.9 10.2 67 3.2 N 13 20 7 11 1011.3 1011.3 8.0
03/06:30pm 16.5 14.5 10.1 66 3.4 N 11 15 6 8 1010.6 1010.6 8.0
03/06:00pm 16.9 14.0 9.8 63 3.7 N 15 22 8 12 1010.3 1010.3 8.0
03/05:30pm 17.5 15.0 9.7 60 4.1 N 13 20 7 11 1010.1 1010.1 8.0
03/05:00pm 18.1 15.2 9.5 57 4.5 N 15 24 8 13 1009.7 1009.7 8.0
03/04:30pm 18.8 15.4 9.0 53 5.1 NNW 17 26 9 14 1009.7 1009.7 8.0
03/04:00pm 19.3 15.3 8.9 51 5.5 NW 20 33 11 18 1009.9 1009.9 8.0
03/03:30pm 19.9 16.7 9.8 52 5.4 NW 17 30 9 16 1010.0 1010.0 8.0
03/03:00pm 19.2 15.4 9.1 52 5.3 NW 19 30 10 16 1010.0 1010.0 8.0
03/02:30pm 19.6 15.9 9.5 52 5.4 NNW 19 32 10 17 1009.8 1009.8 8.0
03/02:00pm 18.2 16.6 12.9 71 3.0 N 13 19 7 10 1009.9 1009.9 8.0
03/01:30pm 16.4 16.9 14.9 91 0.9 N 6 7 3 4 1010.1 1010.1 8.0
03/01:00pm 15.9 16.1 14.6 92 0.7 NNW 7 9 4 5 1010.2 1010.2 7.8
03/12:30pm 15.0 13.8 13.9 93 0.6 WNW 13 22 7 12 1010.4 1010.4 7.8
03/12:00pm 14.6 12.5 13.5 93 0.6 WNW 17 32 9 17 1010.4 1010.4 7.6
03/11:30am 17.8 17.7 16.1 90 1.0 NNW 11 19 6 10 1010.1 1010.1 4.4
03/11:00am 17.6 16.8 16.1 91 0.9 N 15 22 8 12 1010.1 1010.1 3.0
03/10:30am 17.5 16.2 15.7 89 1.1 N 17 24 9 13 1009.7 1009.7 2.2
03/10:00am 17.7 15.7 15.5 87 1.3 N 20 28 11 15 1009.8 1009.8 1.4
03/09:30am 17.4 15.4 15.4 88 1.2 NNE 20 33 11 18 1010.0 1010.0 1.4
03/09:16am 17.4 14.8 15.0 86 1.4 N 22 39 12 21 1010.0 1010.0 1.2
03/09:06am 18.4 15.3 14.5 78 2.3 N 24 37 13 20 1010.5 1010.5 0.2
03/09:00am 18.5 16.2 14.6 78 2.3 N 20 32 11 17 1010.4 1010.4 1.2
03/08:30am 18.3 16.0 14.6 79 2.1 N 20 28 11 15 1009.9 1009.9 1.2
03/08:00am 17.9 16.5 14.4 80 2.0 NNE 15 24 8 13 1009.5 1009.5 1.2
03/07:30am 18.3 16.4 14.2 77 2.4 N 17 24 9 13 1010.4 1010.4 1.2
03/07:00am 18.7 15.8 14.0 74 2.7 N 22 33 12 18 1010.8 1010.8 1.2
03/06:30am 18.6 17.7 13.7 73 2.8 N 11 19 6 10 1010.7 1010.7 1.2
03/06:00am 18.9 17.9 13.5 71 3.1 N 11 17 6 9 1010.9 1010.9 1.2
03/05:30am 18.8 17.5 13.6 72 3.0 N 13 22 7 12 1011.2 1011.2 1.2
03/05:00am 19.1 17.3 13.3 69 3.3 N 15 22 8 12 1011.1 1011.1 1.0
03/04:30am 18.2 16.7 13.1 72 2.9 N 13 20 7 11 1011.2 1011.2 1.0
03/04:00am 18.8 18.0 12.8 68 3.4 N 9 15 5 8 1011.1 1011.1 0.6
03/03:30am 19.3 18.3 12.3 64 3.9 N 9 15 5 8 1011.3 1011.3 0.6
03/03:00am 19.2 18.0 12.7 66 3.7 NNW 11 19 6 10 1011.8 1011.8 0.6
03/02:30am 19.3 17.3 12.8 66 3.7 N 15 22 8 12 1011.9 1011.9 0.6
03/02:00am 19.1 18.4 13.1 68 3.4 NNE 9 19 5 10 1012.0 1012.0 0.6
03/01:30am 19.2 18.4 12.9 67 3.6 N 9 15 5 8 1012.4 1012.4 0.6
03/01:00am 19.3 18.8 12.8 66 3.7 N 7 11 4 6 1012.7 1012.7 0.6
03/12:30am 19.6 18.0 12.8 65 3.8 N 13 26 7 14 1012.9 1012.9 0.4
03/12:00am 18.9 18.6 13.3 70 3.2 N 7 11 4 6 1013.4 1013.4 0.2
 
Date/Time
EST
Temp
°C
App
Temp
°C
Dew
Point
°C
Rel
Hum
%
Delta-T
°C
Wind Press
QNH
hPa
Press
MSL
hPa
Rain since
9am
mm
Dir  Spd
km/h
Gust
km/h
Spd
kts
Gust
kts
02/11:30pm 19.2 18.1 13.2 68 3.4 N 11 15 6 8 1013.6 1013.6 0.2
02/11:00pm 20.1 17.3 12.6 62 4.2 N 19 28 10 15 1013.8 1013.8 0.0
02/10:30pm 20.2 18.4 12.2 60 4.5 NNW 13 24 7 13 1013.9 1013.9 0.0
02/10:00pm 20.0 18.9 11.8 59 4.5 NNW 9 15 5 8 1014.1 1014.1 0.0
02/09:30pm 21.0 19.1 10.5 51 5.7 NNW 11 17 6 9 1014.1 1014.1 0.0
02/09:00pm 21.3 19.8 10.5 50 5.9 NNW 9 15 5 8 1014.0 1014.0 0.0
02/08:30pm 21.2 19.7 10.4 50 5.9 NNW 9 13 5 7 1014.1 1014.1 0.0
02/08:00pm 21.5 20.4 10.6 50 6.0 NNW 7 9 4 5 1014.0 1014.0 0.0
02/07:30pm 22.4 20.3 9.9 45 6.8 NNW 11 19 6 10 1014.2 1014.2 0.0
02/07:00pm 21.7 20.2 10.5 49 6.1 NNE 9 13 5 7 1014.4 1014.4 0.0
02/06:30pm 22.2 20.0 10.7 48 6.3 NNE 13 19 7 10 1014.1 1014.1 0.0
02/06:00pm 22.9 20.1 10.0 44 7.0 N 15 24 8 13 1013.8 1013.8 0.0
02/05:30pm 22.6 20.6 10.1 45 6.8 N 11 15 6 8 1013.8 1013.8 0.0
02/05:00pm 22.5 20.2 10.3 46 6.7 NNE 13 24 7 13 1013.8 1013.8 0.0
02/04:30pm 23.7 19.7 8.9 39 7.9 N 20 32 11 17 1013.7 1013.7 0.0
02/04:00pm 24.4 19.9 8.4 36 8.5 N 22 33 12 18 1013.6 1013.6 0.0
02/03:30pm 23.8 21.3 11.2 45 7.1 NE 15 22 8 12 1013.8 1013.8 0.0
02/03:00pm 23.8 20.6 9.8 41 7.6 NNE 17 30 9 16 1013.7 1013.7 0.0
02/02:30pm 22.9 20.1 11.3 48 6.5 N 17 24 9 13 1013.9 1013.9 0.0
02/02:00pm 23.6 21.4 12.0 48 6.6 N 15 24 8 13 1014.2 1014.2 0.0
02/01:30pm 22.0 19.3 11.7 52 5.8 N 17 26 9 14 1014.7 1014.7 0.0
02/01:00pm 21.6 19.1 11.0 51 5.8 N 15 22 8 12 1015.5 1015.5 0.0
02/12:30pm 21.2 17.8 10.7 51 5.7 N 19 30 10 16 1015.9 1015.9 0.0
02/12:00pm 20.8 17.9 10.9 53 5.4 N 17 28 9 15 1016.5 1016.5 0.0
02/11:30am 20.8 17.5 10.9 53 5.4 N 19 32 10 17 1017.0 1017.0 0.0
02/11:00am 21.0 17.5 10.8 52 5.6 N 20 33 11 18 1017.2 1017.2 0.0
02/10:30am 20.3 16.3 10.4 53 5.4 N 22 33 12 18 1017.5 1017.5 0.0
02/10:00am 19.9 16.4 10.3 54 5.2 NNE 19 26 10 14 1017.8 1017.8 0.0
02/09:30am 19.6 16.0 10.0 54 5.1 NNE 19 30 10 16 1018.2 1018.2 0.0
02/09:00am 19.3 16.6 10.3 56 4.8 NNE 15 24 8 13 1018.3 1018.3 0.0
02/08:30am 18.7 16.7 10.0 57 4.6 N 11 15 6 8 1018.4 1018.4 0.0
02/08:00am 18.4 15.8 9.5 56 4.7 N 13 20 7 11 1018.2 1018.2 0.0
02/07:30am 17.8 15.8 10.2 61 4.0 NNE 11 17 6 9 1018.2 1018.2 0.0
02/07:00am 17.4 15.0 10.1 62 3.9 NNE 13 20 7 11 1017.8 1017.8 0.0
02/06:30am 17.2 14.8 10.1 63 3.8 NNE 13 17 7 9 1017.8 1017.8 0.0
02/06:00am 17.0 14.9 9.9 63 3.7 NNE 11 17 6 9 1017.7 1017.7 0.0
02/05:30am 16.9 15.3 10.1 64 3.6 NNE 9 15 5 8 1017.8 1017.8 0.0
02/05:00am 17.2 15.7 10.6 65 3.5 NNE 9 15 5 8 1017.9 1017.9 0.0
02/04:30am 17.3 15.1 10.7 65 3.5 NNE 13 17 7 9 1018.1 1018.1 0.0
02/04:00am 17.8 15.6 10.7 63 3.8 NNE 13 19 7 10 1018.2 1018.2 0.0
02/03:30am 17.2 15.7 10.6 65 3.5 NNE 9 13 5 7 1018.4 1018.4 0.0
02/03:00am 17.6 15.2 10.2 62 3.9 NNE 13 19 7 10 1018.5 1018.5 0.0
02/02:30am 17.7 15.8 10.6 63 3.8 NNE 11 19 6 10 1018.8 1018.8 0.0
02/02:00am 17.2 15.5 11.2 68 3.2 NE 11 13 6 7 1019.2 1019.2 0.0
02/01:30am 17.0 16.3 11.9 72 2.8 NE 7 11 4 6 1019.4 1019.4 0.0
02/01:00am 17.5 16.1 10.9 65 3.5 NNE 9 15 5 8 1019.7 1019.7 0.0
02/12:30am 17.8 16.8 11.1 65 3.6 NNE 7 11 4 6 1020.0 1020.0 0.0
02/12:00am 17.6 16.3 11.2 66 3.5 NNE 9 13 5 7 1020.2 1020.2 0.0
 
Date/Time
EST
Temp
°C
App
Temp
°C
Dew
Point
°C
Rel
Hum
%
Delta-T
°C
Wind Press
QNH
hPa
Press
MSL
hPa
Rain since
9am
mm
Dir  Spd
km/h
Gust
km/h
Spd
kts
Gust
kts
01/11:30pm 17.7 16.1 10.3 62 3.9 NNE 9 13 5 7 1020.6 1020.6 0.0
01/11:00pm 18.1 17.1 11.0 63 3.8 NNE 7 9 4 5 1020.9 1020.9 0.0
01/10:30pm 18.3 17.3 10.4 60 4.2 NNE 6 9 3 5 1021.2 1021.2 0.0
01/10:00pm 20.4 18.3 9.9 51 5.6 NNE 11 17 6 9 1021.2 1021.2 0.0
01/09:30pm 20.4 18.3 9.9 51 5.6 NNE 11 15 6 8 1021.3 1021.3 0.0
01/09:00pm 20.3 18.3 10.1 52 5.5 NNE 11 17 6 9 1021.2 1021.2 0.0
01/08:30pm 20.2 18.5 10.0 52 5.5 NNE 9 13 5 7 1021.2 1021.2 0.0
01/08:00pm 20.1 18.8 11.1 56 4.9 NNE 9 15 5 8 1021.1 1021.1 0.0
01/07:30pm 21.2 19.4 10.7 51 5.7 NNE 11 17 6 9 1020.9 1020.9 0.0
01/07:00pm 21.9 19.8 11.0 50 6.0 NNE 13 19 7 10 1020.9 1020.9 0.0

Latest Capital City Observations: Canberra | Sydney | Melbourne | Brisbane | Adelaide | Perth | Hobart | Darwin

Other formats

Comma delimited format used in spreadsheet applications
http://www.bom.gov.au/fwo/IDV60901/IDV60901.94857.axf

JavaScript Object Notation format (JSON) in row-major order
http://www.bom.gov.au/fwo/IDV60901/IDV60901.94857.json

Data quality

Most of these data are generated automatically and are frequently updated. Quality checks on data are not normally performed. It is possible for incorrect values to appear. Refer to information at About Latest Weather Observations and please check the disclaimer before using these data.